createdAt,value
2023-04-27T00:00:00.033Z,1.30
2023-04-27T00:02:34.507Z,1.87
2023-04-27T00:05:11.177Z,1.60
2023-04-27T00:07:47.243Z,1.40
2023-04-27T00:10:22.038Z,1.73
2023-04-27T00:12:56.277Z,1.70
2023-04-27T00:15:31.361Z,1.47
2023-04-27T00:18:05.784Z,1.53
2023-04-27T00:20:41.107Z,1.93
2023-04-27T00:23:16.912Z,1.50
2023-04-27T00:25:51.463Z,1.50
2023-04-27T00:28:25.802Z,2.20
2023-04-27T00:31:00.481Z,1.70
2023-04-27T00:33:35.084Z,1.93
2023-04-27T00:36:10.506Z,1.60
2023-04-27T00:38:46.353Z,1.80
2023-04-27T00:41:21.007Z,1.60
2023-04-27T00:43:55.688Z,1.97
2023-04-27T00:46:31.056Z,1.43
2023-04-27T00:49:06.088Z,1.40
2023-04-27T00:51:40.969Z,1.93
2023-04-27T00:54:17.259Z,1.63
2023-04-27T00:56:52.396Z,1.57
2023-04-27T00:59:26.985Z,1.77
2023-04-27T01:02:02.361Z,2.30
2023-04-27T01:04:37.143Z,1.50
2023-04-27T01:07:11.932Z,1.97
2023-04-27T01:09:48.309Z,1.50
2023-04-27T01:12:23.157Z,1.30
2023-04-27T01:14:57.486Z,1.60
2023-04-27T01:17:32.244Z,1.47
2023-04-27T01:20:10.920Z,1.57
2023-04-27T01:22:46.257Z,1.83
2023-04-27T01:25:22.190Z,1.53
2023-04-27T01:27:56.988Z,1.63
2023-04-27T01:30:31.397Z,2.00
2023-04-27T01:33:06.516Z,1.47
2023-04-27T01:35:40.922Z,1.60
2023-04-27T01:38:15.626Z,1.70
2023-04-27T01:40:52.771Z,1.50
2023-04-27T01:43:27.941Z,1.60
2023-04-27T01:46:07.665Z,1.70
2023-04-27T01:48:42.848Z,1.40
2023-04-27T01:51:18.589Z,1.50
2023-04-27T01:53:53.845Z,1.63
2023-04-27T01:56:29.568Z,1.47
2023-04-27T01:59:04.314Z,1.93
2023-04-27T02:01:38.737Z,1.30
2023-04-27T02:04:13.928Z,1.40
2023-04-27T02:06:48.472Z,1.50
2023-04-27T02:09:23.226Z,1.97
2023-04-27T02:11:59.309Z,1.33
2023-04-27T02:14:34.524Z,1.57
2023-04-27T02:17:09.177Z,1.90
2023-04-27T02:19:43.640Z,1.50
2023-04-27T02:22:18.656Z,1.70
2023-04-27T02:24:53.019Z,1.37
2023-04-27T02:27:29.562Z,1.43
2023-04-27T02:30:06.979Z,1.47
2023-04-27T02:32:42.522Z,1.37
2023-04-27T02:35:16.959Z,1.40
2023-04-27T02:37:51.520Z,1.53
2023-04-27T02:40:26.029Z,1.60
2023-04-27T02:43:02.018Z,1.50
2023-04-27T02:45:39.326Z,2.00
2023-04-27T02:48:13.990Z,1.57
2023-04-27T02:50:48.330Z,1.93
2023-04-27T02:53:22.910Z,2.07
2023-04-27T02:55:58.592Z,1.70
2023-04-27T02:58:34.805Z,1.37
2023-04-27T03:01:09.859Z,1.90
2023-04-27T03:03:47.767Z,2.00
2023-04-27T03:06:22.236Z,2.20
2023-04-27T03:08:56.990Z,1.83
2023-04-27T03:11:31.495Z,1.70
2023-04-27T03:14:07.770Z,1.60
2023-04-27T03:16:42.159Z,2.30
2023-04-27T03:19:17.061Z,1.77
2023-04-27T03:21:51.593Z,2.53
2023-04-27T03:24:26.684Z,2.23
2023-04-27T03:27:02.367Z,2.37
2023-04-27T03:29:38.354Z,2.63
2023-04-27T03:32:12.743Z,2.20
2023-04-27T03:34:47.732Z,2.47
2023-04-27T03:37:22.086Z,2.00
2023-04-27T03:39:56.950Z,2.00
2023-04-27T03:42:31.386Z,2.00
2023-04-27T03:45:09.005Z,2.20
2023-04-27T03:47:43.535Z,2.00
2023-04-27T03:50:18.496Z,2.10
2023-04-27T03:52:52.946Z,2.00
2023-04-27T03:55:27.499Z,1.67
2023-04-27T03:58:02.005Z,2.43
2023-04-27T04:00:38.707Z,2.40
2023-04-27T04:03:13.856Z,2.33
2023-04-27T04:05:48.376Z,2.60
2023-04-27T04:08:23.112Z,3.03
2023-04-27T04:10:58.272Z,3.30
2023-04-27T04:13:33.081Z,4.07
2023-04-27T04:16:10.751Z,4.30
2023-04-27T04:18:46.688Z,2.63
2023-04-27T04:21:21.180Z,2.80
2023-04-27T04:23:56.479Z,2.10
2023-04-27T04:26:30.931Z,2.50
2023-04-27T04:29:06.235Z,2.37
2023-04-27T04:31:42.573Z,1.97
2023-04-27T04:34:17.804Z,33.43
2023-04-27T04:36:52.561Z,2.50
2023-04-27T04:39:31.584Z,2.50
2023-04-27T04:42:05.931Z,1.77
2023-04-27T04:44:40.857Z,2.27
2023-04-27T04:47:16.837Z,2.40
2023-04-27T04:49:53.198Z,2.33
2023-04-27T04:52:27.824Z,2.63
2023-04-27T04:55:02.486Z,44.07
2023-04-27T04:57:37.433Z,2.40
2023-04-27T05:00:14.323Z,2.10
2023-04-27T05:02:50.352Z,26.57
2023-04-27T05:05:26.862Z,2.67
2023-04-27T05:08:01.279Z,3.30
2023-04-27T05:10:36.086Z,3.57
2023-04-27T05:13:10.591Z,2.80
2023-04-27T05:15:45.296Z,2.93
2023-04-27T05:18:22.504Z,2.20
2023-04-27T05:20:57.535Z,2.90
2023-04-27T05:23:31.807Z,2.30
2023-04-27T05:26:13.115Z,3.60
2023-04-27T05:28:49.412Z,26.03
2023-04-27T05:31:24.388Z,2.77
2023-04-27T05:34:00.246Z,2.47
2023-04-27T05:36:34.930Z,2.80
2023-04-27T05:39:09.439Z,2.30
2023-04-27T05:41:44.276Z,2.40
2023-04-27T05:44:18.556Z,2.00
2023-04-27T05:46:53.260Z,2.53
2023-04-27T05:49:28.908Z,2.30
2023-04-27T05:52:04.411Z,2.60
2023-04-27T05:54:38.767Z,1.90
2023-04-27T05:57:13.457Z,2.97
2023-04-27T05:59:47.878Z,1.90
2023-04-27T06:02:56.196Z,2.90
2023-04-27T06:05:31.428Z,9.10
2023-04-27T06:08:06.286Z,133.93
2023-04-27T06:10:41.014Z,2.50
2023-04-27T06:13:16.297Z,2.93
2023-04-27T06:15:51.068Z,2.10
2023-04-27T06:18:26.975Z,2.70
2023-04-27T06:21:02.513Z,2.23
2023-04-27T06:23:36.920Z,2.43
2023-04-27T06:26:11.704Z,2.27
2023-04-27T06:28:46.900Z,2.40
2023-04-27T06:31:21.895Z,1.87
2023-04-27T06:33:57.927Z,2.00
2023-04-27T06:36:32.535Z,1.90
2023-04-27T06:39:06.870Z,1.90
2023-04-27T06:41:41.493Z,2.37
2023-04-27T06:44:20.399Z,2.07
2023-04-27T06:46:55.075Z,2.23
2023-04-27T06:49:31.133Z,2.20
2023-04-27T06:52:07.357Z,1.90
2023-04-27T06:54:42.042Z,1.80
2023-04-27T06:57:17.131Z,1.83
2023-04-27T06:59:52.803Z,1.60
2023-04-27T07:02:27.668Z,2.00
2023-04-27T07:05:03.551Z,2.03
2023-04-27T07:07:38.294Z,2.13
2023-04-27T07:10:12.962Z,1.90
2023-04-27T07:12:47.961Z,1.70
2023-04-27T07:15:23.518Z,3.30
2023-04-27T07:17:58.209Z,2.10
2023-04-27T07:20:34.069Z,1.90
2023-04-27T07:23:08.717Z,1.60
2023-04-27T07:25:43.684Z,1.20
2023-04-27T07:28:18.605Z,4.40
2023-04-27T07:30:53.062Z,3.47
2023-04-27T07:33:28.122Z,1.23
2023-04-27T07:36:04.720Z,1.40
2023-04-27T07:38:39.704Z,1.03
2023-04-27T07:41:14.545Z,1.63
2023-04-27T07:43:50.040Z,1.20
2023-04-27T07:46:24.606Z,1.03
2023-04-27T07:49:00.665Z,1.40
2023-04-27T07:51:36.829Z,1.00
2023-04-27T07:54:11.555Z,1.70
2023-04-27T07:56:46.232Z,1.77
2023-04-27T07:59:21.004Z,1.13
2023-04-27T08:02:04.070Z,0.90
2023-04-27T08:04:46.983Z,1.23
2023-04-27T08:07:23.304Z,1.60
2023-04-27T08:09:58.041Z,1.60
2023-04-27T08:12:33.692Z,1.23
2023-04-27T08:15:09.950Z,1.57
2023-04-27T08:17:44.421Z,1.30
2023-04-27T08:20:19.516Z,1.17
2023-04-27T08:22:55.304Z,0.97
2023-04-27T08:25:30.010Z,1.20
2023-04-27T08:28:04.290Z,1.63
2023-04-27T08:30:38.916Z,1.10
2023-04-27T08:33:13.518Z,0.80
2023-04-27T08:35:48.196Z,1.00
2023-04-27T08:38:25.582Z,1.40
2023-04-27T08:41:07.601Z,0.83
2023-04-27T08:43:53.990Z,1.20
2023-04-27T08:46:28.804Z,1.30
2023-04-27T08:49:03.163Z,1.10
2023-04-27T08:51:38.097Z,1.43
2023-04-27T08:54:13.790Z,1.20
2023-04-27T08:56:48.563Z,1.40
2023-04-27T08:59:23.494Z,1.40
2023-04-27T09:01:58.541Z,1.47
2023-04-27T09:04:39.789Z,1.23
2023-04-27T09:07:15.608Z,1.73
2023-04-27T09:09:53.147Z,1.73
2023-04-27T09:12:27.836Z,1.60
2023-04-27T09:15:03.800Z,1.60
2023-04-27T09:17:39.042Z,1.17
2023-04-27T09:20:14.050Z,1.50
2023-04-27T09:22:50.107Z,1.50
2023-04-27T09:25:28.002Z,1.83
2023-04-27T14:03:36.488Z,1.87
2023-04-27T14:06:11.672Z,1.80
2023-04-27T14:08:46.128Z,1.52
2023-04-27T14:11:21.332Z,1.85
2023-04-27T14:13:55.662Z,1.73
2023-04-27T14:16:30.783Z,1.48
2023-04-27T14:19:06.614Z,1.73
2023-04-27T14:21:41.265Z,1.85
2023-04-27T14:24:15.542Z,1.62
2023-04-27T14:26:51.320Z,1.37
2023-04-27T14:29:25.916Z,1.70
2023-04-27T14:32:15.125Z,1.60
2023-04-27T21:54:31.056Z,9.88
2023-04-27T21:57:06.277Z,10.03
2023-04-27T21:59:40.772Z,9.47
2023-04-27T22:03:16.391Z,7.75
2023-04-27T22:05:52.906Z,6.13
2023-04-27T22:08:27.469Z,5.50
2023-04-27T22:11:02.619Z,41.83
2023-04-27T22:13:37.180Z,6.37
2023-04-27T22:16:13.114Z,7.90
2023-04-27T22:18:49.735Z,7.93
2023-04-27T22:21:24.548Z,7.70
2023-04-27T22:23:59.025Z,7.10
2023-04-27T22:26:33.625Z,7.13
2023-04-27T22:29:08.359Z,9.13
2023-04-27T22:31:43.424Z,13.80
2023-04-27T22:34:19.266Z,29.60
2023-04-27T22:36:54.417Z,29.50
2023-04-27T22:39:28.983Z,20.63
2023-04-27T22:42:03.923Z,23.23
2023-04-27T22:44:38.260Z,16.50
2023-04-27T22:47:12.929Z,30.23
2023-04-27T22:49:49.742Z,23.70
2023-04-27T22:52:25.104Z,40.20
2023-04-27T22:54:59.396Z,74.70
2023-04-27T22:57:34.127Z,56.93
2023-04-27T23:00:11.637Z,90.10
2023-04-27T23:02:47.603Z,52.97
2023-04-27T23:05:23.911Z,62.20
2023-04-27T23:07:58.612Z,85.47
2023-04-27T23:10:34.915Z,98.37
2023-04-27T23:13:11.498Z,101.70
2023-04-27T23:15:45.807Z,104.90
2023-04-27T23:18:20.556Z,102.97
2023-04-27T23:20:56.597Z,64.10
2023-04-27T23:23:31.188Z,29.80
2023-04-27T23:26:14.167Z,15.30
2023-04-27T23:28:49.845Z,13.17
2023-04-27T23:31:24.652Z,12.93
2023-04-27T23:33:59.594Z,13.17
2023-04-27T23:36:35.381Z,13.27
2023-04-27T23:39:10.211Z,14.73
2023-04-27T23:41:44.716Z,14.37
2023-04-27T23:44:19.510Z,12.90
2023-04-27T23:46:54.290Z,17.03
2023-04-27T23:49:29.028Z,21.97
2023-04-27T23:52:05.220Z,24.13
2023-04-27T23:54:40.193Z,20.43
2023-04-27T23:57:16.094Z,18.77
2023-04-27T23:59:50.724Z,17.87
